sensor_id;sensor_type;location;lat;lon;timestamp;pressure;altitude;pressure_sealevel;temperature;humidity
67109;BME280;54027;50.786;7.058;2023-07-28T00:00:31;100156.63;;;17.37;100.00
67109;BME280;54027;50.786;7.058;2023-07-28T00:02:56;100157.47;;;17.38;100.00
67109;BME280;54027;50.786;7.058;2023-07-28T00:05:21;100168.69;;;17.40;100.00
67109;BME280;54027;50.786;7.058;2023-07-28T00:07:47;100169.53;;;17.40;100.00
67109;BME280;54027;50.786;7.058;2023-07-28T00:10:12;100169.53;;;17.40;100.00
67109;BME280;54027;50.786;7.058;2023-07-28T00:12:38;100166.03;;;17.41;100.00
67109;BME280;54027;50.786;7.058;2023-07-28T00:15:03;100159.84;;;17.42;100.00
67109;BME280;54027;50.786;7.058;2023-07-28T00:17:29;100158.19;;;17.41;100.00
67109;BME280;54027;50.786;7.058;2023-07-28T00:19:54;100158.19;;;17.41;100.00
67109;BME280;54027;50.786;7.058;2023-07-28T00:22:19;100157.19;;;17.44;100.00
67109;BME280;54027;50.786;7.058;2023-07-28T00:24:45;100160.72;;;17.43;100.00
67109;BME280;54027;50.786;7.058;2023-07-28T00:27:10;100163.31;;;17.43;100.00
67109;BME280;54027;50.786;7.058;2023-07-28T00:29:38;100169.41;;;17.43;100.00
67109;BME280;54027;50.786;7.058;2023-07-28T00:32:03;100167.69;;;17.42;100.00
67109;BME280;54027;50.786;7.058;2023-07-28T00:34:29;100167.63;;;17.44;100.00
67109;BME280;54027;50.786;7.058;2023-07-28T00:36:54;100164.13;;;17.45;100.00
67109;BME280;54027;50.786;7.058;2023-07-28T00:39:20;100164.94;;;17.46;100.00
67109;BME280;54027;50.786;7.058;2023-07-28T00:41:45;100167.50;;;17.47;100.00
67109;BME280;54027;50.786;7.058;2023-07-28T00:44:10;100165.75;;;17.48;100.00
67109;BME280;54027;50.786;7.058;2023-07-28T00:46:36;100160.50;;;17.48;100.00
67109;BME280;54027;50.786;7.058;2023-07-28T00:49:01;100155.28;;;17.48;100.00
67109;BME280;54027;50.786;7.058;2023-07-28T00:51:31;100154.44;;;17.47;100.00
67109;BME280;54027;50.786;7.058;2023-07-28T00:53:57;100150.97;;;17.47;100.00
67109;BME280;54027;50.786;7.058;2023-07-28T00:56:24;100149.22;;;17.47;100.00
67109;BME280;54027;50.786;7.058;2023-07-28T00:58:50;100152.69;;;17.48;100.00
67109;BME280;54027;50.786;7.058;2023-07-28T01:01:16;100148.34;;;17.47;100.00
67109;BME280;54027;50.786;7.058;2023-07-28T01:03:42;100145.75;;;17.47;100.00
67109;BME280;54027;50.786;7.058;2023-07-28T01:06:13;100147.44;;;17.48;100.00
67109;BME280;54027;50.786;7.058;2023-07-28T01:09:03;100143.97;;;17.47;100.00
67109;BME280;54027;50.786;7.058;2023-07-28T01:11:31;100151.72;;;17.49;100.00
67109;BME280;54027;50.786;7.058;2023-07-28T01:13:56;100149.97;;;17.49;100.00
67109;BME280;54027;50.786;7.058;2023-07-28T01:16:22;100150.78;;;17.51;100.00
67109;BME280;54027;50.786;7.058;2023-07-28T01:18:48;100148.97;;;17.52;100.00
67109;BME280;54027;50.786;7.058;2023-07-28T01:21:40;100146.50;;;17.49;100.00
67109;BME280;54027;50.786;7.058;2023-07-28T01:26:40;100143.75;;;17.52;100.00
67109;BME280;54027;50.786;7.058;2023-07-28T01:29:06;100142.13;;;17.49;100.00
67109;BME280;54027;50.786;7.058;2023-07-28T01:31:32;100144.75;;;17.49;100.00
67109;BME280;54027;50.786;7.058;2023-07-28T01:33:58;100141.22;;;17.50;100.00
67109;BME280;54027;50.786;7.058;2023-07-28T01:36:23;100147.38;;;17.49;100.00
67109;BME280;54027;50.786;7.058;2023-07-28T01:38:49;100146.38;;;17.52;100.00
67109;BME280;54027;50.786;7.058;2023-07-28T01:41:14;100148.16;;;17.51;100.00
67109;BME280;54027;50.786;7.058;2023-07-28T01:43:40;100150.69;;;17.53;100.00
67109;BME280;54027;50.786;7.058;2023-07-28T01:46:06;100152.31;;;17.55;100.00
67109;BME280;54027;50.786;7.058;2023-07-28T01:48:32;100145.41;;;17.54;100.00
67109;BME280;54027;50.786;7.058;2023-07-28T01:50:58;100149.69;;;17.55;100.00
67109;BME280;54027;50.786;7.058;2023-07-28T01:53:23;100147.94;;;17.56;100.00
67109;BME280;54027;50.786;7.058;2023-07-28T01:55:49;100145.31;;;17.56;100.00
67109;BME280;54027;50.786;7.058;2023-07-28T01:58:14;100146.22;;;17.55;100.00
67109;BME280;54027;50.786;7.058;2023-07-28T02:00:39;100154.88;;;17.57;100.00
67109;BME280;54027;50.786;7.058;2023-07-28T02:03:05;100147.06;;;17.55;100.00
67109;BME280;54027;50.786;7.058;2023-07-28T02:05:31;100150.50;;;17.57;100.00
67109;BME280;54027;50.786;7.058;2023-07-28T02:07:57;100147.88;;;17.57;100.00
67109;BME280;54027;50.786;7.058;2023-07-28T02:10:23;100149.63;;;17.57;100.00
67109;BME280;54027;50.786;7.058;2023-07-28T02:12:49;100149.63;;;17.57;100.00
67109;BME280;54027;50.786;7.058;2023-07-28T02:15:15;100145.19;;;17.59;100.00
67109;BME280;54027;50.786;7.058;2023-07-28T02:17:40;100146.09;;;17.58;100.00
67109;BME280;54027;50.786;7.058;2023-07-28T02:20:06;100144.41;;;17.57;100.00
67109;BME280;54027;50.786;7.058;2023-07-28T02:22:36;100146.09;;;17.58;100.00
67109;BME280;54027;50.786;7.058;2023-07-28T02:25:01;100151.31;;;17.58;100.00
67109;BME280;54027;50.786;7.058;2023-07-28T02:27:27;100151.25;;;17.59;100.00
67109;BME280;54027;50.786;7.058;2023-07-28T02:29:52;100146.09;;;17.58;100.00
67109;BME280;54027;50.786;7.058;2023-07-28T02:32:17;100149.56;;;17.58;100.00
67109;BME280;54027;50.786;7.058;2023-07-28T02:34:43;100146.09;;;17.58;100.00
67109;BME280;54027;50.786;7.058;2023-07-28T02:37:08;100146.09;;;17.58;100.00
67109;BME280;54027;50.786;7.058;2023-07-28T02:39:33;100146.94;;;17.58;100.00
67109;BME280;54027;50.786;7.058;2023-07-28T02:41:59;100147.69;;;17.60;100.00
67109;BME280;54027;50.786;7.058;2023-07-28T02:44:24;100149.41;;;17.61;100.00
67109;BME280;54027;50.786;7.058;2023-07-28T02:46:49;100146.75;;;17.63;100.00
67109;BME280;54027;50.786;7.058;2023-07-28T02:49:15;100151.03;;;17.64;100.00
67109;BME280;54027;50.786;7.058;2023-07-28T02:51:40;100151.88;;;17.64;100.00
67109;BME280;54027;50.786;7.058;2023-07-28T02:54:07;100155.34;;;17.65;100.00
67109;BME280;54027;50.786;7.058;2023-07-28T02:56:32;100153.59;;;17.65;100.00
67109;BME280;54027;50.786;7.058;2023-07-28T02:59:03;100157.88;;;17.66;100.00
67109;BME280;54027;50.786;7.058;2023-07-28T03:01:30;100163.94;;;17.67;100.00
67109;BME280;54027;50.786;7.058;2023-07-28T03:03:58;100160.44;;;17.68;100.00
67109;BME280;54027;50.786;7.058;2023-07-28T03:06:24;100169.13;;;17.68;100.00
67109;BME280;54027;50.786;7.058;2023-07-28T03:08:49;100158.81;;;17.65;100.00
67109;BME280;54027;50.786;7.058;2023-07-28T03:11:15;100162.34;;;17.64;100.00
67109;BME280;54027;50.786;7.058;2023-07-28T03:13:40;100167.56;;;17.64;100.00
67109;BME280;54027;50.786;7.058;2023-07-28T03:16:06;100163.09;;;17.66;100.00
67109;BME280;54027;50.786;7.058;2023-07-28T03:18:31;100165.72;;;17.66;100.00
67109;BME280;54027;50.786;7.058;2023-07-28T03:20:56;100161.28;;;17.68;100.00
67109;BME280;54027;50.786;7.058;2023-07-28T03:23:22;100162.19;;;17.67;100.00
67109;BME280;54027;50.786;7.058;2023-07-28T03:25:47;100161.28;;;17.68;100.00
67109;BME280;54027;50.786;7.058;2023-07-28T03:28:12;100170.78;;;17.69;100.00
67109;BME280;54027;50.786;7.058;2023-07-28T03:30:38;100163.81;;;17.70;100.00
67109;BME280;54027;50.786;7.058;2023-07-28T03:33:03;100165.66;;;17.68;100.00
67109;BME280;54027;50.786;7.058;2023-07-28T03:35:28;100158.59;;;17.70;100.00
67109;BME280;54027;50.786;7.058;2023-07-28T03:37:54;100165.50;;;17.71;100.00
67109;BME280;54027;50.786;7.058;2023-07-28T03:40:19;100162.03;;;17.70;100.00
67109;BME280;54027;50.786;7.058;2023-07-28T03:42:44;100169.88;;;17.70;100.00
67109;BME280;54027;50.786;7.058;2023-07-28T03:45:10;100166.38;;;17.71;100.00
67109;BME280;54027;50.786;7.058;2023-07-28T03:47:35;100161.91;;;17.73;100.00
67109;BME280;54027;50.786;7.058;2023-07-28T03:50:02;100154.91;;;17.74;100.00
67109;BME280;54027;50.786;7.058;2023-07-28T03:52:27;100169.75;;;17.73;100.00
67109;BME280;54027;50.786;7.058;2023-07-28T03:54:53;100161.84;;;17.75;100.00
67109;BME280;54027;50.786;7.058;2023-07-28T03:57:18;100164.38;;;17.76;100.00
67109;BME280;54027;50.786;7.058;2023-07-28T03:59:43;100168.75;;;17.76;100.00
67109;BME280;54027;50.786;7.058;2023-07-28T04:02:09;100166.13;;;17.76;100.00
67109;BME280;54027;50.786;7.058;2023-07-28T04:04:35;100170.44;;;17.77;100.00
67109;BME280;54027;50.786;7.058;2023-07-28T04:07:01;100164.31;;;17.78;100.00
67109;BME280;54027;50.786;7.058;2023-07-28T04:09:27;100169.47;;;17.79;100.00
67109;BME280;54027;50.786;7.058;2023-07-28T04:11:52;100166.00;;;17.79;100.00
67109;BME280;54027;50.786;7.058;2023-07-28T04:14:18;100165.09;;;17.80;100.00
67109;BME280;54027;50.786;7.058;2023-07-28T04:16:43;100168.56;;;17.80;100.00
67109;BME280;54027;50.786;7.058;2023-07-28T04:19:08;100168.47;;;17.82;100.00
67109;BME280;54027;50.786;7.058;2023-07-28T04:21:34;100169.31;;;17.82;100.00
67109;BME280;54027;50.786;7.058;2023-07-28T04:23:59;100171.88;;;17.84;100.00
67109;BME280;54027;50.786;7.058;2023-07-28T04:26:25;100175.34;;;17.84;100.00
67109;BME280;54027;50.786;7.058;2023-07-28T04:28:50;100175.28;;;17.86;100.00
67109;BME280;54027;50.786;7.058;2023-07-28T04:31:16;100178.66;;;17.88;100.00
67109;BME280;54027;50.786;7.058;2023-07-28T04:33:44;100176.91;;;17.88;100.00
67109;BME280;54027;50.786;7.058;2023-07-28T04:36:09;100179.50;;;17.88;100.00
67109;BME280;54027;50.786;7.058;2023-07-28T04:38:34;100182.84;;;17.92;100.00
67109;BME280;54027;50.786;7.058;2023-07-28T04:41:00;100183.59;;;17.94;100.00
67109;BME280;54027;50.786;7.058;2023-07-28T04:43:28;100186.16;;;17.95;100.00
67109;BME280;54027;50.786;7.058;2023-07-28T04:45:56;100184.38;;;17.96;100.00
67109;BME280;54027;50.786;7.058;2023-07-28T04:48:22;100190.38;;;17.98;100.00
67109;BME280;54027;50.786;7.058;2023-07-28T04:50:48;100191.16;;;18.00;100.00
67109;BME280;54027;50.786;7.058;2023-07-28T04:53:13;100192.78;;;18.03;100.00
67109;BME280;54027;50.786;7.058;2023-07-28T04:55:38;100189.25;;;18.04;100.00
67109;BME280;54027;50.786;7.058;2023-07-28T04:58:04;100189.09;;;18.07;100.00
67109;BME280;54027;50.786;7.058;2023-07-28T05:00:29;100189.00;;;18.08;100.00
67109;BME280;54027;50.786;7.058;2023-07-28T05:02:54;100191.47;;;18.11;100.00
67109;BME280;54027;50.786;7.058;2023-07-28T05:05:20;100196.66;;;18.13;100.00
67109;BME280;54027;50.786;7.058;2023-07-28T05:07:45;100194.03;;;18.13;100.00
67109;BME280;54027;50.786;7.058;2023-07-28T05:10:11;100197.25;;;18.18;100.00
67109;BME280;54027;50.786;7.058;2023-07-28T05:12:36;100201.34;;;18.23;100.00
67109;BME280;54027;50.786;7.058;2023-07-28T05:15:02;100208.00;;;18.30;100.00
67109;BME280;54027;50.786;7.058;2023-07-28T05:17:27;100208.75;;;18.32;100.00
67109;BME280;54027;50.786;7.058;2023-07-28T05:19:53;100203.38;;;18.35;100.00
67109;BME280;54027;50.786;7.058;2023-07-28T05:22:18;100210.22;;;18.38;100.00
67109;BME280;54027;50.786;7.058;2023-07-28T05:24:44;100209.31;;;18.39;100.00
67109;BME280;54027;50.786;7.058;2023-07-28T05:27:10;100210.91;;;18.41;100.00
67109;BME280;54027;50.786;7.058;2023-07-28T05:29:36;100215.16;;;18.44;100.00
67109;BME280;54027;50.786;7.058;2023-07-28T05:32:02;100218.63;;;18.44;100.00
67109;BME280;54027;50.786;7.058;2023-07-28T05:34:27;100221.25;;;18.44;100.00
67109;BME280;54027;50.786;7.058;2023-07-28T05:36:53;100211.63;;;18.45;100.00
67109;BME280;54027;50.786;7.058;2023-07-28T05:39:18;100216.09;;;18.43;100.00
67109;BME280;54027;50.786;7.058;2023-07-28T05:41:44;100215.84;;;18.47;100.00
67109;BME280;54027;50.786;7.058;2023-07-28T05:44:09;100221.63;;;18.54;100.00
67109;BME280;54027;50.786;7.058;2023-07-28T05:46:35;100213.63;;;18.57;100.00
67109;BME280;54027;50.786;7.058;2023-07-28T05:49:00;100222.19;;;18.61;100.00
67109;BME280;54027;50.786;7.058;2023-07-28T05:51:25;100227.13;;;18.67;100.00
67109;BME280;54027;50.786;7.058;2023-07-28T05:53:51;100231.34;;;18.69;100.00
67109;BME280;54027;50.786;7.058;2023-07-28T05:56:16;100227.72;;;18.72;100.00
67109;BME280;54027;50.786;7.058;2023-07-28T05:58:43;100222.34;;;18.75;100.00
67109;BME280;54027;50.786;7.058;2023-07-28T06:01:08;100227.63;;;18.73;100.00
67109;BME280;54027;50.786;7.058;2023-07-28T06:03:34;100224.81;;;18.78;100.00
67109;BME280;54027;50.786;7.058;2023-07-28T06:05:59;100226.56;;;18.77;100.00
67109;BME280;54027;50.786;7.058;2023-07-28T06:08:24;100234.13;;;18.83;100.00
67109;BME280;54027;50.786;7.058;2023-07-28T06:10:50;100231.28;;;18.88;100.00
67109;BME280;54027;50.786;7.058;2023-07-28T06:13:15;100234.53;;;18.93;100.00
67109;BME280;54027;50.786;7.058;2023-07-28T06:15:42;100232.78;;;18.93;100.00
67109;BME280;54027;50.786;7.058;2023-07-28T06:18:07;100241.22;;;18.98;100.00
67109;BME280;54027;50.786;7.058;2023-07-28T06:20:33;100235.75;;;19.03;100.00
67109;BME280;54027;50.786;7.058;2023-07-28T06:23:00;100244.22;;;19.08;100.00
67109;BME280;54027;50.786;7.058;2023-07-28T06:25:25;100249.47;;;19.08;100.00
67109;BME280;54027;50.786;7.058;2023-07-28T06:27:50;100247.63;;;19.10;100.00
67109;BME280;54027;50.786;7.058;2023-07-28T06:30:16;100251.69;;;19.16;100.00
67109;BME280;54027;50.786;7.058;2023-07-28T06:32:41;100248.84;;;19.20;100.00
67109;BME280;54027;50.786;7.058;2023-07-28T06:35:07;100251.47;;;19.20;100.00
67109;BME280;54027;50.786;7.058;2023-07-28T06:37:35;100247.03;;;19.21;100.00
67109;BME280;54027;50.786;7.058;2023-07-28T06:40:03;100248.59;;;19.25;100.00
67109;BME280;54027;50.786;7.058;2023-07-28T06:42:30;100252.50;;;19.33;100.00
67109;BME280;54027;50.786;7.058;2023-07-28T06:44:56;100259.97;;;19.41;100.00
67109;BME280;54027;50.786;7.058;2023-07-28T06:47:22;100259.22;;;19.54;100.00
67109;BME280;54027;50.786;7.058;2023-07-28T06:49:47;100264.34;;;19.73;100.00
67109;BME280;54027;50.786;7.058;2023-07-28T06:52:12;100263.72;;;19.85;100.00
67109;BME280;54027;50.786;7.058;2023-07-28T06:54:39;100262.13;;;19.83;100.00
67109;BME280;54027;50.786;7.058;2023-07-28T06:57:05;100270.47;;;19.89;100.00
67109;BME280;54027;50.786;7.058;2023-07-28T06:59:31;100271.16;;;19.93;100.00
67109;BME280;54027;50.786;7.058;2023-07-28T07:01:57;100270.75;;;20.00;100.00
67109;BME280;54027;50.786;7.058;2023-07-28T07:04:22;100275.41;;;20.11;100.00
67109;BME280;54027;50.786;7.058;2023-07-28T07:06:48;100271.34;;;20.21;100.00
67109;BME280;54027;50.786;7.058;2023-07-28T07:09:13;100267.03;;;20.20;100.00
67109;BME280;54027;50.786;7.058;2023-07-28T07:11:41;100276.09;;;20.14;100.00
67109;BME280;54027;50.786;7.058;2023-07-28T07:14:07;100279.06;;;20.08;100.00
67109;BME280;54027;50.786;7.058;2023-07-28T07:16:33;100280.66;;;20.11;100.00
67109;BME280;54027;50.786;7.058;2023-07-28T07:18:59;100289.22;;;20.14;100.00
67109;BME280;54027;50.786;7.058;2023-07-28T07:21:24;100282.09;;;20.16;100.00
67109;BME280;54027;50.786;7.058;2023-07-28T07:23:49;100280.22;;;20.18;100.00
67109;BME280;54027;50.786;7.058;2023-07-28T07:26:15;100286.75;;;20.27;100.00
67109;BME280;54027;50.786;7.058;2023-07-28T07:28:40;100290.47;;;20.39;100.00
67109;BME280;54027;50.786;7.058;2023-07-28T07:31:13;100289.00;;;20.49;100.00
67109;BME280;54027;50.786;7.058;2023-07-28T07:33:38;100293.75;;;20.58;100.00
67109;BME280;54027;50.786;7.058;2023-07-28T07:36:04;100296.13;;;20.62;100.00
67109;BME280;54027;50.786;7.058;2023-07-28T07:38:29;100297.50;;;20.54;100.00
67109;BME280;54027;50.786;7.058;2023-07-28T07:40:55;100295.09;;;20.65;100.00
67109;BME280;54027;50.786;7.058;2023-07-28T07:43:20;100303.72;;;20.67;100.00
67109;BME280;54027;50.786;7.058;2023-07-28T07:45:46;100305.69;;;20.79;100.00
67109;BME280;54027;50.786;7.058;2023-07-28T07:48:12;100306.94;;;20.88;100.00
67109;BME280;54027;50.786;7.058;2023-07-28T07:50:38;100304.84;;;21.08;100.00
67109;BME280;54027;50.786;7.058;2023-07-28T07:53:03;100315.28;;;21.24;100.00
67109;BME280;54027;50.786;7.058;2023-07-28T07:55:29;100312.69;;;21.38;100.00
67109;BME280;54027;50.786;7.058;2023-07-28T07:57:56;100315.50;;;21.49;100.00
67109;BME280;54027;50.786;7.058;2023-07-28T08:00:22;100318.06;;;21.51;98.27
67109;BME280;54027;50.786;7.058;2023-07-28T08:02:49;100318.06;;;21.51;96.85
67109;BME280;54027;50.786;7.058;2023-07-28T08:05:14;100315.78;;;21.45;96.86
67109;BME280;54027;50.786;7.058;2023-07-28T08:07:40;100318.31;;;21.46;96.63
67109;BME280;54027;50.786;7.058;2023-07-28T08:10:06;100318.31;;;21.46;96.49
67109;BME280;54027;50.786;7.058;2023-07-28T08:12:31;100324.34;;;21.48;96.71
67109;BME280;54027;50.786;7.058;2023-07-28T08:14:57;100326.63;;;21.54;97.10
67109;BME280;54027;50.786;7.058;2023-07-28T08:17:23;100331.34;;;21.63;97.23
67109;BME280;54027;50.786;7.058;2023-07-28T08:19:48;100319.50;;;21.70;97.32
67109;BME280;54027;50.786;7.058;2023-07-28T08:22:13;100328.97;;;21.73;94.57
67109;BME280;54027;50.786;7.058;2023-07-28T08:24:39;100330.78;;;21.87;94.69
67109;BME280;54027;50.786;7.058;2023-07-28T08:27:04;100327.41;;;21.85;92.33
67109;BME280;54027;50.786;7.058;2023-07-28T08:29:30;100327.03;;;21.91;92.48
67109;BME280;54027;50.786;7.058;2023-07-28T08:31:55;100328.53;;;21.95;92.46
67109;BME280;54027;50.786;7.058;2023-07-28T08:34:21;100326.06;;;21.92;92.31
67109;BME280;54027;50.786;7.058;2023-07-28T08:36:46;100326.63;;;22.11;93.15
67109;BME280;54027;50.786;7.058;2023-07-28T08:39:11;100328.03;;;22.16;91.52
67109;BME280;54027;50.786;7.058;2023-07-28T08:41:37;100320.84;;;22.32;92.60
67109;BME280;54027;50.786;7.058;2023-07-28T08:44:02;100325.16;;;22.33;91.09
67109;BME280;54027;50.786;7.058;2023-07-28T08:46:28;100325.75;;;22.24;91.21
67109;BME280;54027;50.786;7.058;2023-07-28T08:48:54;100330.47;;;22.19;91.69
67109;BME280;54027;50.786;7.058;2023-07-28T08:51:22;100323.31;;;22.21;91.38
67109;BME280;54027;50.786;7.058;2023-07-28T08:53:48;100326.06;;;22.20;89.11
67109;BME280;54027;50.786;7.058;2023-07-28T08:56:14;100335.16;;;22.28;90.74
67109;BME280;54027;50.786;7.058;2023-07-28T08:58:39;100321.34;;;22.39;88.59
67109;BME280;54027;50.786;7.058;2023-07-28T09:01:05;100326.47;;;22.55;87.99
67109;BME280;54027;50.786;7.058;2023-07-28T09:03:30;100326.75;;;22.50;88.45
67109;BME280;54027;50.786;7.058;2023-07-28T09:06:01;100316.13;;;22.52;88.27
67109;BME280;54027;50.786;7.058;2023-07-28T09:08:27;100331.19;;;22.50;87.04
67109;BME280;54027;50.786;7.058;2023-07-28T09:10:52;100325.97;;;22.62;87.93
67109;BME280;54027;50.786;7.058;2023-07-28T09:13:19;100331.41;;;22.73;87.64
67109;BME280;54027;50.786;7.058;2023-07-28T09:15:46;100326.16;;;22.86;88.19
67109;BME280;54027;50.786;7.058;2023-07-28T09:18:15;100328.34;;;23.06;88.51
67109;BME280;54027;50.786;7.058;2023-07-28T09:20:42;100328.06;;;23.23;87.85
67109;BME280;54027;50.786;7.058;2023-07-28T09:23:08;100326.91;;;23.27;88.16
67109;BME280;54027;50.786;7.058;2023-07-28T09:25:36;100326.50;;;23.21;88.16
67109;BME280;54027;50.786;7.058;2023-07-28T09:28:04;100337.72;;;23.10;86.13
67109;BME280;54027;50.786;7.058;2023-07-28T09:30:49;100324.28;;;23.01;86.51
67109;BME280;54027;50.786;7.058;2023-07-28T09:33:31;100317.09;;;22.90;82.30
67109;BME280;54027;50.786;7.058;2023-07-28T09:36:11;100332.50;;;22.96;86.14
67109;BME280;54027;50.786;7.058;2023-07-28T09:38:39;100335.38;;;23.06;87.18
67109;BME280;54027;50.786;7.058;2023-07-28T09:41:11;100327.22;;;23.23;86.11
67109;BME280;54027;50.786;7.058;2023-07-28T09:43:37;100325.03;;;23.42;84.74
67109;BME280;54027;50.786;7.058;2023-07-28T09:46:04;100326.09;;;23.52;84.24
67109;BME280;54027;50.786;7.058;2023-07-28T09:48:32;100331.16;;;23.55;83.50
67109;BME280;54027;50.786;7.058;2023-07-28T09:51:01;100322.41;;;23.42;82.84
67109;BME280;54027;50.786;7.058;2023-07-28T09:53:28;100331.97;;;23.30;83.84
67109;BME280;54027;50.786;7.058;2023-07-28T09:55:55;100325.72;;;23.19;84.50
67109;BME280;54027;50.786;7.058;2023-07-28T09:58:23;100331.78;;;23.07;85.93
67109;BME280;54027;50.786;7.058;2023-07-28T10:00:50;100326.31;;;22.97;83.37
67109;BME280;54027;50.786;7.058;2023-07-28T10:03:16;100326.84;;;23.02;84.44
67109;BME280;54027;50.786;7.058;2023-07-28T10:05:42;100331.69;;;23.08;84.73
67109;BME280;54027;50.786;7.058;2023-07-28T10:08:08;100332.31;;;22.99;84.73
67109;BME280;54027;50.786;7.058;2023-07-28T10:10:34;100337.84;;;22.82;82.42
67109;BME280;54027;50.786;7.058;2023-07-28T10:13:00;100329.91;;;22.69;82.19
67109;BME280;54027;50.786;7.058;2023-07-28T10:15:31;100322.44;;;22.76;82.00
67109;BME280;54027;50.786;7.058;2023-07-28T10:17:58;100332.06;;;22.89;82.45
67109;BME280;54027;50.786;7.058;2023-07-28T10:20:38;100326.63;;;23.05;81.57
67109;BME280;54027;50.786;7.058;2023-07-28T10:25:32;100339.47;;;23.36;80.80
67109;BME280;54027;50.786;7.058;2023-07-28T10:27:59;100334.50;;;23.32;80.78
67109;BME280;54027;50.786;7.058;2023-07-28T10:30:24;100339.16;;;23.28;81.59
67109;BME280;54027;50.786;7.058;2023-07-28T10:32:49;100334.50;;;23.32;82.06
67109;BME280;54027;50.786;7.058;2023-07-28T10:37:44;100344.81;;;23.22;82.69
67109;BME280;54027;50.786;7.058;2023-07-28T10:42:54;100353.81;;;22.93;83.54
67109;BME280;54027;50.786;7.058;2023-07-28T10:45:21;100350.50;;;22.89;84.82
67109;BME280;54027;50.786;7.058;2023-07-28T10:47:48;100343.25;;;22.93;84.69
67109;BME280;54027;50.786;7.058;2023-07-28T10:50:13;100340.09;;;23.27;83.97
67109;BME280;54027;50.786;7.058;2023-07-28T10:52:39;100323.75;;;23.35;78.44
67109;BME280;54027;50.786;7.058;2023-07-28T10:55:15;100328.19;;;23.34;78.18
67109;BME280;54027;50.786;7.058;2023-07-28T10:57:40;100323.13;;;23.31;76.64
67109;BME280;54027;50.786;7.058;2023-07-28T11:00:06;100330.72;;;23.36;78.42
67109;BME280;54027;50.786;7.058;2023-07-28T11:02:33;100338.28;;;23.28;79.53
67109;BME280;54027;50.786;7.058;2023-07-28T11:04:58;100343.75;;;23.12;80.56
67109;BME280;54027;50.786;7.058;2023-07-28T11:07:24;100342.75;;;23.01;81.40
67109;BME280;54027;50.786;7.058;2023-07-28T11:09:50;100347.69;;;22.92;81.62
67109;BME280;54027;50.786;7.058;2023-07-28T11:12:16;100340.38;;;22.83;79.61
67109;BME280;54027;50.786;7.058;2023-07-28T11:14:42;100339.88;;;22.91;80.75
67109;BME280;54027;50.786;7.058;2023-07-28T11:17:07;100337.34;;;22.89;79.04
67109;BME280;54027;50.786;7.058;2023-07-28T11:19:33;100339.69;;;22.94;80.19
67109;BME280;54027;50.786;7.058;2023-07-28T11:21:59;100335.75;;;22.87;78.12
67109;BME280;54027;50.786;7.058;2023-07-28T11:24:24;100339.97;;;22.89;78.19
67109;BME280;54027;50.786;7.058;2023-07-28T11:26:51;100343.09;;;23.09;78.43
67109;BME280;54027;50.786;7.058;2023-07-28T11:29:18;100331.88;;;23.32;77.08
67109;BME280;54027;50.786;7.058;2023-07-28T11:31:44;100331.03;;;23.69;77.50
67109;BME280;54027;50.786;7.058;2023-07-28T11:34:21;100321.00;;;23.99;75.90
67109;BME280;54027;50.786;7.058;2023-07-28T11:36:47;100316.25;;;23.92;74.03
67109;BME280;54027;50.786;7.058;2023-07-28T11:39:13;100324.59;;;23.86;74.36
67109;BME280;54027;50.786;7.058;2023-07-28T11:41:39;100332.19;;;23.78;75.23
67109;BME280;54027;50.786;7.058;2023-07-28T11:44:06;100332.19;;;23.90;74.97
67109;BME280;54027;50.786;7.058;2023-07-28T11:46:35;100330.50;;;24.02;74.36
67109;BME280;54027;50.786;7.058;2023-07-28T11:49:18;100321.75;;;24.02;74.72
67109;BME280;54027;50.786;7.058;2023-07-28T11:51:48;100332.63;;;23.97;75.12
67109;BME280;54027;50.786;7.058;2023-07-28T11:54:18;100331.78;;;24.09;75.02
67109;BME280;54027;50.786;7.058;2023-07-28T11:56:48;100335.34;;;24.08;75.36
67109;BME280;54027;50.786;7.058;2023-07-28T11:59:18;100335.66;;;23.91;76.99
67109;BME280;54027;50.786;7.058;2023-07-28T12:02:00;100340.56;;;23.72;78.38
67109;BME280;54027;50.786;7.058;2023-07-28T12:04:30;100344.84;;;23.60;79.70
67109;BME280;54027;50.786;7.058;2023-07-28T12:07:14;100335.16;;;23.61;79.88
67109;BME280;54027;50.786;7.058;2023-07-28T12:12:15;100306.47;;;24.30;76.53
67109;BME280;54027;50.786;7.058;2023-07-28T12:14:41;100310.34;;;24.85;75.36
67109;BME280;54027;50.786;7.058;2023-07-28T12:22:27;100266.75;;;25.36;68.14
67109;BME280;54027;50.786;7.058;2023-07-28T12:24:53;100283.03;;;25.54;69.03
67109;BME280;54027;50.786;7.058;2023-07-28T12:27:19;100308.19;;;25.59;70.82
67109;BME280;54027;50.786;7.058;2023-07-28T12:29:50;100287.25;;;25.90;69.54
67109;BME280;54027;50.786;7.058;2023-07-28T12:32:16;100269.06;;;25.96;66.95
67109;BME280;54027;50.786;7.058;2023-07-28T12:34:42;100274.72;;;26.14;67.74
67109;BME280;54027;50.786;7.058;2023-07-28T12:37:07;100272.41;;;26.32;66.36
67109;BME280;54027;50.786;7.058;2023-07-28T12:39:36;100268.06;;;26.31;66.32
67109;BME280;54027;50.786;7.058;2023-07-28T12:42:05;100262.19;;;26.16;65.37
67109;BME280;54027;50.786;7.058;2023-07-28T12:44:30;100264.63;;;25.97;64.91
67109;BME280;54027;50.786;7.058;2023-07-28T12:46:56;100270.66;;;25.77;65.26
67109;BME280;54027;50.786;7.058;2023-07-28T12:49:21;100304.94;;;25.56;66.74
67109;BME280;54027;50.786;7.058;2023-07-28T12:51:46;100301.22;;;25.58;67.02
67109;BME280;54027;50.786;7.058;2023-07-28T12:54:12;100304.50;;;25.38;67.56
67109;BME280;54027;50.786;7.058;2023-07-28T12:56:37;100306.66;;;25.22;67.98